Hovedside
METAR-TAF:

METAR-TAF

Lufthavner :

Kramfors lufthavn

Kramfors, Sverige

breddegrad: 63-03N, lengdegrad: 017-46E, høyde over havet: 10 m

Gjeldene værobservasjon

Denne rapporten ble laget for 49 minutter siden, klokken 15:20 UTC
Vind 8 kt fra Vest, skiftende mellom Vest-sørvest og Vest-nordvest
Temperatur 19°C
Luftfuktighet 43%
Trykk 1017 hPa
Sikt 10 km eller mer
ingen skyer under 1500 m og ingen bygeskyer

METAR: ESNK 241520Z 27008KT 240V300 CAVOK 19/06 Q1017

Tid: 18:09 (16:09 UTC)

Varsel

Denne rapporten ble laget for 1 time og 39 minutter siden, klokken 14:30 UTC
Varsel gyldig fra 24. klokken 15 UTC til 24. klokken 18 UTC
Vind 8 kt fra Vest-nordvest
Sikt 10 km eller mer
ingen skyer under 1500 m og ingen bygeskyer

TAF: ESNK 241430Z 2415/2418 30008KT CAVOK

Værobservasjoner og værvarsel for over 4000 flyplasser (METAR- og TAF-rapporter).

Tilgjengelige stasjoner er representert av de røde og gule prikkene på kartet.

Hold musepekeren over prikken for å se navnet på stasjonen.

Klikk så for å se værobservasjoner og -varsler.

For å forandre kartet kan du klikke på den grønne knappen med svart kryss for å zoome inn, på den grønne knappen med strek for å zoome ut, eller på de grønne pilene for å se tilstøtende kart.


METAR-TAF: